sensor_id;sensor_type;location;lat;lon;timestamp;P1;durP1;ratioP1;P2;durP2;ratioP2
80908;SDS011;70358;56.958;24.126;2023-12-22T00:01:18;2.13;;;1.40;;
80908;SDS011;70358;56.958;24.126;2023-12-22T00:03:44;3.00;;;1.40;;
80908;SDS011;70358;56.958;24.126;2023-12-22T00:06:11;2.40;;;1.48;;
80908;SDS011;70358;56.958;24.126;2023-12-22T00:08:37;2.05;;;1.40;;
80908;SDS011;70358;56.958;24.126;2023-12-22T00:11:02;3.03;;;1.63;;
80908;SDS011;70358;56.958;24.126;2023-12-22T00:13:28;2.78;;;1.40;;
80908;SDS011;70358;56.958;24.126;2023-12-22T00:15:54;2.00;;;1.40;;
80908;SDS011;70358;56.958;24.126;2023-12-22T00:18:19;2.20;;;1.50;;
80908;SDS011;70358;56.958;24.126;2023-12-22T00:20:44;2.42;;;1.40;;
80908;SDS011;70358;56.958;24.126;2023-12-22T00:23:10;2.35;;;1.40;;
80908;SDS011;70358;56.958;24.126;2023-12-22T00:25:35;3.42;;;1.70;;
80908;SDS011;70358;56.958;24.126;2023-12-22T00:28:01;2.15;;;1.40;;
80908;SDS011;70358;56.958;24.126;2023-12-22T00:30:26;1.83;;;1.23;;
80908;SDS011;70358;56.958;24.126;2023-12-22T00:32:51;1.90;;;1.23;;
80908;SDS011;70358;56.958;24.126;2023-12-22T00:35:17;2.63;;;1.30;;
80908;SDS011;70358;56.958;24.126;2023-12-22T00:37:42;2.27;;;1.33;;
80908;SDS011;70358;56.958;24.126;2023-12-22T00:40:08;1.98;;;1.20;;
80908;SDS011;70358;56.958;24.126;2023-12-22T00:42:34;2.58;;;1.27;;
80908;SDS011;70358;56.958;24.126;2023-12-22T00:45:00;2.13;;;1.30;;
80908;SDS011;70358;56.958;24.126;2023-12-22T00:47:25;2.25;;;1.40;;
80908;SDS011;70358;56.958;24.126;2023-12-22T00:49:51;2.22;;;1.10;;
80908;SDS011;70358;56.958;24.126;2023-12-22T00:52:16;1.63;;;1.08;;
80908;SDS011;70358;56.958;24.126;2023-12-22T00:54:42;1.60;;;1.27;;
80908;SDS011;70358;56.958;24.126;2023-12-22T00:57:07;2.13;;;1.30;;
80908;SDS011;70358;56.958;24.126;2023-12-22T00:59:32;2.13;;;1.40;;
80908;SDS011;70358;56.958;24.126;2023-12-22T01:01:58;2.20;;;1.17;;
80908;SDS011;70358;56.958;24.126;2023-12-22T01:04:23;1.80;;;1.15;;
80908;SDS011;70358;56.958;24.126;2023-12-22T01:06:49;1.95;;;1.25;;
80908;SDS011;70358;56.958;24.126;2023-12-22T01:09:14;1.88;;;1.00;;
80908;SDS011;70358;56.958;24.126;2023-12-22T01:11:40;2.38;;;1.40;;
80908;SDS011;70358;56.958;24.126;2023-12-22T01:14:06;1.63;;;1.00;;
80908;SDS011;70358;56.958;24.126;2023-12-22T01:16:32;1.80;;;1.08;;
80908;SDS011;70358;56.958;24.126;2023-12-22T01:18:57;2.00;;;1.30;;
80908;SDS011;70358;56.958;24.126;2023-12-22T01:21:23;2.42;;;1.30;;
80908;SDS011;70358;56.958;24.126;2023-12-22T01:23:48;1.90;;;1.30;;
80908;SDS011;70358;56.958;24.126;2023-12-22T01:26:14;1.38;;;0.90;;
80908;SDS011;70358;56.958;24.126;2023-12-22T01:28:39;1.38;;;1.08;;
80908;SDS011;70358;56.958;24.126;2023-12-22T01:31:05;1.42;;;1.00;;
80908;SDS011;70358;56.958;24.126;2023-12-22T01:33:31;2.13;;;0.90;;
80908;SDS011;70358;56.958;24.126;2023-12-22T01:35:56;1.77;;;1.13;;
80908;SDS011;70358;56.958;24.126;2023-12-22T01:38:21;1.70;;;1.02;;
80908;SDS011;70358;56.958;24.126;2023-12-22T01:40:47;2.15;;;1.20;;
80908;SDS011;70358;56.958;24.126;2023-12-22T01:43:12;1.67;;;1.13;;
80908;SDS011;70358;56.958;24.126;2023-12-22T01:45:46;1.50;;;0.90;;
80908;SDS011;70358;56.958;24.126;2023-12-22T01:48:13;1.77;;;1.00;;
80908;SDS011;70358;56.958;24.126;2023-12-22T01:50:38;1.52;;;0.90;;
80908;SDS011;70358;56.958;24.126;2023-12-22T01:53:04;1.40;;;0.90;;
80908;SDS011;70358;56.958;24.126;2023-12-22T01:55:30;1.50;;;1.00;;
80908;SDS011;70358;56.958;24.126;2023-12-22T01:57:55;1.30;;;0.85;;
80908;SDS011;70358;56.958;24.126;2023-12-22T02:00:21;1.90;;;0.85;;
80908;SDS011;70358;56.958;24.126;2023-12-22T02:02:47;2.05;;;0.90;;
80908;SDS011;70358;56.958;24.126;2023-12-22T02:05:12;1.40;;;0.88;;
80908;SDS011;70358;56.958;24.126;2023-12-22T02:07:38;1.80;;;1.00;;
80908;SDS011;70358;56.958;24.126;2023-12-22T02:10:07;1.25;;;0.85;;
80908;SDS011;70358;56.958;24.126;2023-12-22T02:12:34;1.60;;;0.90;;
80908;SDS011;70358;56.958;24.126;2023-12-22T02:15:00;1.65;;;0.90;;
80908;SDS011;70358;56.958;24.126;2023-12-22T02:17:39;1.52;;;0.98;;
80908;SDS011;70358;56.958;24.126;2023-12-22T02:20:19;1.20;;;0.90;;
80908;SDS011;70358;56.958;24.126;2023-12-22T02:22:44;1.70;;;0.90;;
80908;SDS011;70358;56.958;24.126;2023-12-22T02:25:10;1.65;;;0.90;;
80908;SDS011;70358;56.958;24.126;2023-12-22T02:27:45;1.27;;;0.85;;
80908;SDS011;70358;56.958;24.126;2023-12-22T02:30:14;1.52;;;0.95;;
80908;SDS011;70358;56.958;24.126;2023-12-22T02:32:50;1.80;;;1.02;;
80908;SDS011;70358;56.958;24.126;2023-12-22T02:35:17;1.63;;;0.75;;
80908;SDS011;70358;56.958;24.126;2023-12-22T02:37:47;1.75;;;1.00;;
80908;SDS011;70358;56.958;24.126;2023-12-22T02:40:14;1.65;;;0.95;;
80908;SDS011;70358;56.958;24.126;2023-12-22T02:42:39;1.58;;;0.80;;
80908;SDS011;70358;56.958;24.126;2023-12-22T02:45:05;1.30;;;0.85;;
80908;SDS011;70358;56.958;24.126;2023-12-22T02:47:32;1.30;;;0.93;;
80908;SDS011;70358;56.958;24.126;2023-12-22T02:49:58;1.88;;;1.05;;
80908;SDS011;70358;56.958;24.126;2023-12-22T02:52:24;1.88;;;1.08;;
80908;SDS011;70358;56.958;24.126;2023-12-22T02:54:49;2.00;;;0.95;;
80908;SDS011;70358;56.958;24.126;2023-12-22T02:57:15;1.90;;;1.13;;
80908;SDS011;70358;56.958;24.126;2023-12-22T02:59:40;1.63;;;0.85;;
80908;SDS011;70358;56.958;24.126;2023-12-22T03:02:06;1.58;;;1.00;;
80908;SDS011;70358;56.958;24.126;2023-12-22T03:04:31;1.10;;;0.77;;
80908;SDS011;70358;56.958;24.126;2023-12-22T03:06:56;1.50;;;0.90;;
80908;SDS011;70358;56.958;24.126;2023-12-22T03:09:22;2.30;;;0.98;;
80908;SDS011;70358;56.958;24.126;2023-12-22T03:11:48;1.48;;;0.82;;
80908;SDS011;70358;56.958;24.126;2023-12-22T03:14:20;1.42;;;0.80;;
80908;SDS011;70358;56.958;24.126;2023-12-22T03:16:45;1.73;;;0.98;;
80908;SDS011;70358;56.958;24.126;2023-12-22T03:19:11;1.52;;;0.90;;
80908;SDS011;70358;56.958;24.126;2023-12-22T03:21:36;1.38;;;0.90;;
80908;SDS011;70358;56.958;24.126;2023-12-22T03:24:01;2.13;;;1.00;;
80908;SDS011;70358;56.958;24.126;2023-12-22T03:26:27;1.55;;;0.90;;
80908;SDS011;70358;56.958;24.126;2023-12-22T03:28:53;1.98;;;0.90;;
80908;SDS011;70358;56.958;24.126;2023-12-22T03:31:18;1.77;;;0.88;;
80908;SDS011;70358;56.958;24.126;2023-12-22T03:33:44;1.27;;;0.77;;
80908;SDS011;70358;56.958;24.126;2023-12-22T03:36:09;1.42;;;0.77;;
80908;SDS011;70358;56.958;24.126;2023-12-22T03:38:35;2.20;;;1.10;;
80908;SDS011;70358;56.958;24.126;2023-12-22T03:41:00;1.33;;;0.70;;
80908;SDS011;70358;56.958;24.126;2023-12-22T03:43:25;1.27;;;0.90;;
80908;SDS011;70358;56.958;24.126;2023-12-22T03:45:51;1.35;;;0.75;;
80908;SDS011;70358;56.958;24.126;2023-12-22T03:48:16;1.33;;;0.82;;
80908;SDS011;70358;56.958;24.126;2023-12-22T03:50:50;1.48;;;0.90;;
80908;SDS011;70358;56.958;24.126;2023-12-22T03:53:15;1.63;;;1.00;;
80908;SDS011;70358;56.958;24.126;2023-12-22T03:55:41;1.65;;;0.90;;
80908;SDS011;70358;56.958;24.126;2023-12-22T03:58:07;1.95;;;1.27;;
80908;SDS011;70358;56.958;24.126;2023-12-22T04:00:32;1.65;;;0.98;;
80908;SDS011;70358;56.958;24.126;2023-12-22T04:02:58;1.60;;;0.90;;
80908;SDS011;70358;56.958;24.126;2023-12-22T04:05:24;1.77;;;0.75;;
80908;SDS011;70358;56.958;24.126;2023-12-22T04:07:49;1.48;;;0.80;;
80908;SDS011;70358;56.958;24.126;2023-12-22T04:10:16;1.75;;;0.88;;
80908;SDS011;70358;56.958;24.126;2023-12-22T04:12:42;1.65;;;0.80;;
80908;SDS011;70358;56.958;24.126;2023-12-22T04:15:08;1.48;;;0.88;;
80908;SDS011;70358;56.958;24.126;2023-12-22T04:17:33;1.17;;;0.80;;
80908;SDS011;70358;56.958;24.126;2023-12-22T04:19:59;1.10;;;0.70;;
80908;SDS011;70358;56.958;24.126;2023-12-22T04:22:24;2.17;;;1.05;;
80908;SDS011;70358;56.958;24.126;2023-12-22T04:24:50;1.80;;;1.10;;
80908;SDS011;70358;56.958;24.126;2023-12-22T04:27:15;1.73;;;0.90;;
80908;SDS011;70358;56.958;24.126;2023-12-22T04:29:40;0.98;;;0.60;;
80908;SDS011;70358;56.958;24.126;2023-12-22T04:32:06;1.30;;;0.63;;
80908;SDS011;70358;56.958;24.126;2023-12-22T04:34:31;1.85;;;1.00;;
80908;SDS011;70358;56.958;24.126;2023-12-22T04:36:57;2.92;;;1.02;;
80908;SDS011;70358;56.958;24.126;2023-12-22T04:39:22;1.63;;;0.85;;
80908;SDS011;70358;56.958;24.126;2023-12-22T04:41:47;1.10;;;0.75;;
80908;SDS011;70358;56.958;24.126;2023-12-22T04:44:13;2.33;;;0.90;;
80908;SDS011;70358;56.958;24.126;2023-12-22T04:46:38;1.40;;;0.70;;
80908;SDS011;70358;56.958;24.126;2023-12-22T04:49:03;1.70;;;0.90;;
80908;SDS011;70358;56.958;24.126;2023-12-22T04:51:29;1.58;;;1.00;;
80908;SDS011;70358;56.958;24.126;2023-12-22T04:53:54;1.00;;;0.70;;
80908;SDS011;70358;56.958;24.126;2023-12-22T04:56:20;1.73;;;0.82;;
80908;SDS011;70358;56.958;24.126;2023-12-22T04:58:45;1.95;;;0.98;;
80908;SDS011;70358;56.958;24.126;2023-12-22T05:01:11;1.65;;;0.90;;
80908;SDS011;70358;56.958;24.126;2023-12-22T05:03:38;2.67;;;1.00;;
80908;SDS011;70358;56.958;24.126;2023-12-22T05:06:06;1.42;;;0.80;;
80908;SDS011;70358;56.958;24.126;2023-12-22T05:08:32;1.65;;;0.93;;
80908;SDS011;70358;56.958;24.126;2023-12-22T05:10:57;1.33;;;0.70;;
80908;SDS011;70358;56.958;24.126;2023-12-22T05:13:26;1.95;;;0.85;;
80908;SDS011;70358;56.958;24.126;2023-12-22T05:15:51;1.90;;;0.90;;
80908;SDS011;70358;56.958;24.126;2023-12-22T05:18:17;1.48;;;0.93;;
80908;SDS011;70358;56.958;24.126;2023-12-22T05:20:42;1.73;;;0.90;;
80908;SDS011;70358;56.958;24.126;2023-12-22T05:23:08;1.05;;;0.80;;
80908;SDS011;70358;56.958;24.126;2023-12-22T05:28:43;1.77;;;0.80;;
80908;SDS011;70358;56.958;24.126;2023-12-22T05:31:08;1.10;;;0.68;;
80908;SDS011;70358;56.958;24.126;2023-12-22T05:33:33;2.17;;;0.80;;
80908;SDS011;70358;56.958;24.126;2023-12-22T05:35:59;2.90;;;0.85;;
80908;SDS011;70358;56.958;24.126;2023-12-22T05:38:24;2.13;;;1.10;;
80908;SDS011;70358;56.958;24.126;2023-12-22T05:40:50;2.15;;;1.25;;
80908;SDS011;70358;56.958;24.126;2023-12-22T05:43:15;2.13;;;0.90;;
80908;SDS011;70358;56.958;24.126;2023-12-22T05:45:41;1.55;;;0.80;;
80908;SDS011;70358;56.958;24.126;2023-12-22T05:48:06;2.22;;;1.35;;
80908;SDS011;70358;56.958;24.126;2023-12-22T05:50:32;2.67;;;1.00;;
80908;SDS011;70358;56.958;24.126;2023-12-22T05:52:57;2.95;;;1.20;;
80908;SDS011;70358;56.958;24.126;2023-12-22T05:55:23;2.55;;;1.00;;
80908;SDS011;70358;56.958;24.126;2023-12-22T05:57:48;3.00;;;0.80;;
80908;SDS011;70358;56.958;24.126;2023-12-22T06:00:14;2.17;;;0.90;;
80908;SDS011;70358;56.958;24.126;2023-12-22T06:02:40;1.88;;;0.90;;
80908;SDS011;70358;56.958;24.126;2023-12-22T06:05:06;2.17;;;0.80;;
80908;SDS011;70358;56.958;24.126;2023-12-22T06:07:32;2.35;;;1.02;;
80908;SDS011;70358;56.958;24.126;2023-12-22T06:09:58;1.50;;;0.70;;
80908;SDS011;70358;56.958;24.126;2023-12-22T06:12:23;4.50;;;1.38;;
80908;SDS011;70358;56.958;24.126;2023-12-22T06:14:48;5.57;;;1.70;;
80908;SDS011;70358;56.958;24.126;2023-12-22T06:17:15;3.17;;;1.17;;
80908;SDS011;70358;56.958;24.126;2023-12-22T06:19:40;4.75;;;1.20;;
80908;SDS011;70358;56.958;24.126;2023-12-22T06:22:06;3.00;;;1.00;;
80908;SDS011;70358;56.958;24.126;2023-12-22T06:24:31;2.13;;;1.00;;
80908;SDS011;70358;56.958;24.126;2023-12-22T06:26:57;2.33;;;1.10;;
80908;SDS011;70358;56.958;24.126;2023-12-22T06:29:22;3.08;;;1.15;;
80908;SDS011;70358;56.958;24.126;2023-12-22T06:31:48;3.13;;;1.00;;
80908;SDS011;70358;56.958;24.126;2023-12-22T06:34:19;2.88;;;1.00;;
80908;SDS011;70358;56.958;24.126;2023-12-22T06:36:44;2.58;;;1.15;;
80908;SDS011;70358;56.958;24.126;2023-12-22T06:39:11;2.55;;;1.30;;
80908;SDS011;70358;56.958;24.126;2023-12-22T06:41:36;3.38;;;1.05;;
80908;SDS011;70358;56.958;24.126;2023-12-22T06:44:02;2.88;;;1.08;;
80908;SDS011;70358;56.958;24.126;2023-12-22T06:46:27;3.28;;;1.95;;
80908;SDS011;70358;56.958;24.126;2023-12-22T06:48:54;2.65;;;1.20;;
80908;SDS011;70358;56.958;24.126;2023-12-22T06:51:20;2.00;;;1.25;;
80908;SDS011;70358;56.958;24.126;2023-12-22T06:53:50;4.20;;;1.20;;
80908;SDS011;70358;56.958;24.126;2023-12-22T06:56:19;3.47;;;1.50;;
80908;SDS011;70358;56.958;24.126;2023-12-22T06:58:45;3.08;;;1.33;;
80908;SDS011;70358;56.958;24.126;2023-12-22T07:01:12;3.30;;;1.10;;
80908;SDS011;70358;56.958;24.126;2023-12-22T07:03:42;3.22;;;1.17;;
80908;SDS011;70358;56.958;24.126;2023-12-22T07:06:07;6.25;;;1.23;;
80908;SDS011;70358;56.958;24.126;2023-12-22T07:08:33;3.63;;;1.40;;
80908;SDS011;70358;56.958;24.126;2023-12-22T07:10:58;4.50;;;1.55;;
80908;SDS011;70358;56.958;24.126;2023-12-22T07:13:24;3.25;;;1.58;;
80908;SDS011;70358;56.958;24.126;2023-12-22T07:15:49;3.67;;;1.30;;
80908;SDS011;70358;56.958;24.126;2023-12-22T07:18:15;4.10;;;1.45;;
80908;SDS011;70358;56.958;24.126;2023-12-22T07:20:40;2.90;;;1.30;;
80908;SDS011;70358;56.958;24.126;2023-12-22T07:23:05;5.75;;;1.80;;
80908;SDS011;70358;56.958;24.126;2023-12-22T07:25:35;6.27;;;1.47;;
80908;SDS011;70358;56.958;24.126;2023-12-22T07:28:03;3.72;;;1.55;;
80908;SDS011;70358;56.958;24.126;2023-12-22T07:30:30;4.70;;;1.30;;
80908;SDS011;70358;56.958;24.126;2023-12-22T07:32:55;4.57;;;1.58;;
80908;SDS011;70358;56.958;24.126;2023-12-22T07:35:20;3.42;;;1.40;;
80908;SDS011;70358;56.958;24.126;2023-12-22T07:37:49;2.95;;;1.20;;
80908;SDS011;70358;56.958;24.126;2023-12-22T07:40:15;4.32;;;1.67;;
80908;SDS011;70358;56.958;24.126;2023-12-22T07:42:40;5.43;;;2.20;;
80908;SDS011;70358;56.958;24.126;2023-12-22T07:45:06;6.10;;;1.70;;
80908;SDS011;70358;56.958;24.126;2023-12-22T07:47:32;4.30;;;1.80;;
80908;SDS011;70358;56.958;24.126;2023-12-22T07:49:58;5.72;;;1.70;;
80908;SDS011;70358;56.958;24.126;2023-12-22T07:52:23;3.72;;;1.50;;
80908;SDS011;70358;56.958;24.126;2023-12-22T07:54:49;4.28;;;1.48;;
80908;SDS011;70358;56.958;24.126;2023-12-22T07:57:14;6.15;;;2.05;;
80908;SDS011;70358;56.958;24.126;2023-12-22T07:59:40;3.58;;;1.60;;
80908;SDS011;70358;56.958;24.126;2023-12-22T08:02:05;3.97;;;1.50;;
80908;SDS011;70358;56.958;24.126;2023-12-22T08:04:31;2.80;;;1.23;;
80908;SDS011;70358;56.958;24.126;2023-12-22T08:06:57;3.30;;;1.58;;
80908;SDS011;70358;56.958;24.126;2023-12-22T08:09:22;4.10;;;1.50;;
80908;SDS011;70358;56.958;24.126;2023-12-22T08:11:48;5.85;;;1.60;;
80908;SDS011;70358;56.958;24.126;2023-12-22T08:14:17;4.65;;;1.70;;
80908;SDS011;70358;56.958;24.126;2023-12-22T08:16:43;6.22;;;1.67;;
80908;SDS011;70358;56.958;24.126;2023-12-22T08:19:09;5.57;;;2.25;;
80908;SDS011;70358;56.958;24.126;2023-12-22T08:21:37;3.67;;;1.77;;
80908;SDS011;70358;56.958;24.126;2023-12-22T08:24:03;5.15;;;1.98;;
80908;SDS011;70358;56.958;24.126;2023-12-22T08:26:29;5.88;;;1.90;;
80908;SDS011;70358;56.958;24.126;2023-12-22T08:28:54;4.57;;;1.70;;
80908;SDS011;70358;56.958;24.126;2023-12-22T08:31:19;4.88;;;1.55;;
80908;SDS011;70358;56.958;24.126;2023-12-22T08:33:45;4.93;;;1.70;;
80908;SDS011;70358;56.958;24.126;2023-12-22T08:36:11;3.90;;;1.50;;
80908;SDS011;70358;56.958;24.126;2023-12-22T08:38:39;5.07;;;1.45;;
80908;SDS011;70358;56.958;24.126;2023-12-22T08:41:07;5.00;;;2.00;;
80908;SDS011;70358;56.958;24.126;2023-12-22T08:43:33;4.28;;;1.63;;
80908;SDS011;70358;56.958;24.126;2023-12-22T08:45:59;4.35;;;2.13;;
80908;SDS011;70358;56.958;24.126;2023-12-22T08:48:25;6.00;;;1.80;;
80908;SDS011;70358;56.958;24.126;2023-12-22T08:50:50;5.18;;;1.75;;
80908;SDS011;70358;56.958;24.126;2023-12-22T08:53:20;5.28;;;1.90;;
80908;SDS011;70358;56.958;24.126;2023-12-22T08:55:45;5.40;;;1.80;;
80908;SDS011;70358;56.958;24.126;2023-12-22T08:58:10;3.80;;;1.80;;
80908;SDS011;70358;56.958;24.126;2023-12-22T09:00:36;4.50;;;1.60;;
80908;SDS011;70358;56.958;24.126;2023-12-22T09:03:01;4.95;;;1.90;;
80908;SDS011;70358;56.958;24.126;2023-12-22T09:05:32;5.55;;;1.48;;
80908;SDS011;70358;56.958;24.126;2023-12-22T09:08:31;5.25;;;1.65;;
80908;SDS011;70358;56.958;24.126;2023-12-22T09:10:54;3.17;;;1.65;;
80908;SDS011;70358;56.958;24.126;2023-12-22T09:13:20;4.50;;;1.60;;
80908;SDS011;70358;56.958;24.126;2023-12-22T09:15:45;3.17;;;1.52;;
80908;SDS011;70358;56.958;24.126;2023-12-22T09:18:14;4.65;;;2.03;;
80908;SDS011;70358;56.958;24.126;2023-12-22T09:20:52;4.38;;;1.50;;
80908;SDS011;70358;56.958;24.126;2023-12-22T09:23:17;2.85;;;1.40;;
80908;SDS011;70358;56.958;24.126;2023-12-22T09:25:43;3.78;;;1.60;;
80908;SDS011;70358;56.958;24.126;2023-12-22T09:28:08;5.10;;;2.05;;
80908;SDS011;70358;56.958;24.126;2023-12-22T09:30:34;4.88;;;2.22;;
80908;SDS011;70358;56.958;24.126;2023-12-22T09:32:59;2.95;;;1.38;;
80908;SDS011;70358;56.958;24.126;2023-12-22T09:35:27;4.07;;;1.60;;
80908;SDS011;70358;56.958;24.126;2023-12-22T09:37:55;6.25;;;1.95;;
80908;SDS011;70358;56.958;24.126;2023-12-22T09:40:20;5.53;;;1.83;;
80908;SDS011;70358;56.958;24.126;2023-12-22T09:42:47;6.28;;;1.67;;
80908;SDS011;70358;56.958;24.126;2023-12-22T09:45:16;3.78;;;1.80;;
80908;SDS011;70358;56.958;24.126;2023-12-22T09:47:45;6.03;;;1.58;;
80908;SDS011;70358;56.958;24.126;2023-12-22T09:50:11;2.58;;;1.48;;
80908;SDS011;70358;56.958;24.126;2023-12-22T09:52:38;3.88;;;2.03;;
80908;SDS011;70358;56.958;24.126;2023-12-22T09:55:13;3.65;;;1.20;;
80908;SDS011;70358;56.958;24.126;2023-12-22T09:57:44;3.13;;;1.45;;
80908;SDS011;70358;56.958;24.126;2023-12-22T10:00:13;5.35;;;1.88;;
80908;SDS011;70358;56.958;24.126;2023-12-22T10:02:45;3.47;;;1.60;;
80908;SDS011;70358;56.958;24.126;2023-12-22T10:05:13;6.43;;;1.55;;
80908;SDS011;70358;56.958;24.126;2023-12-22T10:07:51;5.03;;;1.58;;
80908;SDS011;70358;56.958;24.126;2023-12-22T10:10:42;4.32;;;1.83;;
80908;SDS011;70358;56.958;24.126;2023-12-22T10:13:17;3.30;;;1.52;;
80908;SDS011;70358;56.958;24.126;2023-12-22T10:15:49;4.53;;;1.58;;
80908;SDS011;70358;56.958;24.126;2023-12-22T10:19:16;3.58;;;1.60;;
80908;SDS011;70358;56.958;24.126;2023-12-22T10:21:57;5.60;;;1.52;;
80908;SDS011;70358;56.958;24.126;2023-12-22T10:27:14;4.07;;;1.40;;
80908;SDS011;70358;56.958;24.126;2023-12-22T10:29:50;3.28;;;1.52;;
80908;SDS011;70358;56.958;24.126;2023-12-22T10:32:22;3.40;;;1.48;;
80908;SDS011;70358;56.958;24.126;2023-12-22T10:34:48;3.50;;;1.42;;
80908;SDS011;70358;56.958;24.126;2023-12-22T10:37:23;3.47;;;1.70;;
80908;SDS011;70358;56.958;24.126;2023-12-22T10:39:51;3.72;;;1.58;;
80908;SDS011;70358;56.958;24.126;2023-12-22T10:42:24;3.58;;;1.30;;
80908;SDS011;70358;56.958;24.126;2023-12-22T10:44:49;5.63;;;1.42;;
80908;SDS011;70358;56.958;24.126;2023-12-22T10:47:15;6.95;;;1.80;;
80908;SDS011;70358;56.958;24.126;2023-12-22T10:50:11;5.60;;;2.58;;
80908;SDS011;70358;56.958;24.126;2023-12-22T10:53:44;3.92;;;1.63;;
80908;SDS011;70358;56.958;24.126;2023-12-22T10:56:13;4.13;;;1.80;;
80908;SDS011;70358;56.958;24.126;2023-12-22T10:58:39;4.72;;;1.30;;
80908;SDS011;70358;56.958;24.126;2023-12-22T11:01:21;3.10;;;1.20;;
80908;SDS011;70358;56.958;24.126;2023-12-22T11:06:45;4.22;;;1.92;;
80908;SDS011;70358;56.958;24.126;2023-12-22T11:09:12;3.65;;;1.33;;
80908;SDS011;70358;56.958;24.126;2023-12-22T11:11:41;3.90;;;1.95;;
80908;SDS011;70358;56.958;24.126;2023-12-22T11:14:07;3.80;;;1.52;;
80908;SDS011;70358;56.958;24.126;2023-12-22T11:16:33;2.95;;;1.20;;
80908;SDS011;70358;56.958;24.126;2023-12-22T11:19:03;4.50;;;1.75;;
80908;SDS011;70358;56.958;24.126;2023-12-22T11:21:29;3.30;;;1.30;;
80908;SDS011;70358;56.958;24.126;2023-12-22T11:23:58;3.80;;;1.60;;
80908;SDS011;70358;56.958;24.126;2023-12-22T11:26:24;3.58;;;1.13;;
80908;SDS011;70358;56.958;24.126;2023-12-22T11:28:51;4.22;;;1.88;;
80908;SDS011;70358;56.958;24.126;2023-12-22T11:31:18;3.30;;;1.27;;
80908;SDS011;70358;56.958;24.126;2023-12-22T11:33:47;4.25;;;1.17;;
80908;SDS011;70358;56.958;24.126;2023-12-22T11:36:13;2.85;;;1.25;;
80908;SDS011;70358;56.958;24.126;2023-12-22T11:38:42;2.35;;;1.10;;
80908;SDS011;70358;56.958;24.126;2023-12-22T11:41:10;6.93;;;2.08;;
80908;SDS011;70358;56.958;24.126;2023-12-22T11:43:38;3.35;;;1.40;;
80908;SDS011;70358;56.958;24.126;2023-12-22T11:46:04;3.88;;;1.20;;
80908;SDS011;70358;56.958;24.126;2023-12-22T11:48:32;2.63;;;1.40;;
80908;SDS011;70358;56.958;24.126;2023-12-22T11:50:58;2.78;;;1.38;;
80908;SDS011;70358;56.958;24.126;2023-12-22T11:53:25;2.13;;;1.20;;
80908;SDS011;70358;56.958;24.126;2023-12-22T11:55:58;2.53;;;1.17;;
80908;SDS011;70358;56.958;24.126;2023-12-22T11:58:43;2.63;;;1.05;;
80908;SDS011;70358;56.958;24.126;2023-12-22T12:01:16;3.17;;;1.30;;
80908;SDS011;70358;56.958;24.126;2023-12-22T12:03:55;2.40;;;1.27;;
80908;SDS011;70358;56.958;24.126;2023-12-22T12:08:58;2.70;;;1.33;;
80908;SDS011;70358;56.958;24.126;2023-12-22T12:14:16;4.10;;;1.20;;
80908;SDS011;70358;56.958;24.126;2023-12-22T12:16:47;2.28;;;1.10;;
80908;SDS011;70358;56.958;24.126;2023-12-22T12:19:34;2.85;;;1.15;;
80908;SDS011;70358;56.958;24.126;2023-12-22T12:22:02;2.85;;;1.40;;
80908;SDS011;70358;56.958;24.126;2023-12-22T12:24:28;1.98;;;1.10;;
80908;SDS011;70358;56.958;24.126;2023-12-22T12:26:54;1.63;;;0.90;;
80908;SDS011;70358;56.958;24.126;2023-12-22T12:29:53;3.30;;;1.50;;
80908;SDS011;70358;56.958;24.126;2023-12-22T12:32:15;2.72;;;1.40;;
80908;SDS011;70358;56.958;24.126;2023-12-22T12:34:43;4.22;;;1.25;;
80908;SDS011;70358;56.958;24.126;2023-12-22T12:37:08;3.72;;;1.40;;
80908;SDS011;70358;56.958;24.126;2023-12-22T12:39:34;2.58;;;1.20;;
80908;SDS011;70358;56.958;24.126;2023-12-22T12:42:00;2.30;;;1.10;;
80908;SDS011;70358;56.958;24.126;2023-12-22T12:44:31;2.03;;;1.00;;
80908;SDS011;70358;56.958;24.126;2023-12-22T12:47:14;1.88;;;0.98;;
80908;SDS011;70358;56.958;24.126;2023-12-22T12:49:58;2.20;;;1.10;;
80908;SDS011;70358;56.958;24.126;2023-12-22T12:52:29;1.40;;;0.90;;
80908;SDS011;70358;56.958;24.126;2023-12-22T12:55:00;1.90;;;0.90;;
80908;SDS011;70358;56.958;24.126;2023-12-22T12:57:32;2.72;;;1.20;;
80908;SDS011;70358;56.958;24.126;2023-12-22T13:00:03;2.08;;;1.15;;
80908;SDS011;70358;56.958;24.126;2023-12-22T13:02:29;2.20;;;1.20;;
80908;SDS011;70358;56.958;24.126;2023-12-22T13:04:55;2.40;;;1.20;;
80908;SDS011;70358;56.958;24.126;2023-12-22T13:07:35;2.33;;;1.20;;
80908;SDS011;70358;56.958;24.126;2023-12-22T13:10:03;3.70;;;1.30;;
80908;SDS011;70358;56.958;24.126;2023-12-22T13:12:29;2.33;;;1.30;;
80908;SDS011;70358;56.958;24.126;2023-12-22T13:15:03;2.88;;;1.35;;
80908;SDS011;70358;56.958;24.126;2023-12-22T13:17:38;2.08;;;1.10;;
80908;SDS011;70358;56.958;24.126;2023-12-22T13:20:16;3.65;;;1.17;;
80908;SDS011;70358;56.958;24.126;2023-12-22T13:22:48;3.70;;;1.20;;
80908;SDS011;70358;56.958;24.126;2023-12-22T13:25:37;2.40;;;1.27;;
80908;SDS011;70358;56.958;24.126;2023-12-22T13:28:47;2.53;;;1.08;;
80908;SDS011;70358;56.958;24.126;2023-12-22T13:31:12;2.25;;;0.90;;
80908;SDS011;70358;56.958;24.126;2023-12-22T13:33:50;2.40;;;1.17;;
80908;SDS011;70358;56.958;24.126;2023-12-22T13:36:21;2.90;;;1.75;;
80908;SDS011;70358;56.958;24.126;2023-12-22T13:38:50;2.35;;;1.33;;
80908;SDS011;70358;56.958;24.126;2023-12-22T13:41:15;2.72;;;1.13;;
80908;SDS011;70358;56.958;24.126;2023-12-22T13:43:44;2.00;;;1.00;;
80908;SDS011;70358;56.958;24.126;2023-12-22T13:46:14;2.50;;;1.33;;
80908;SDS011;70358;56.958;24.126;2023-12-22T13:48:43;1.83;;;1.05;;
80908;SDS011;70358;56.958;24.126;2023-12-22T13:51:09;1.92;;;1.20;;
80908;SDS011;70358;56.958;24.126;2023-12-22T13:56:32;2.40;;;1.20;;
80908;SDS011;70358;56.958;24.126;2023-12-22T13:59:17;1.58;;;0.90;;
80908;SDS011;70358;56.958;24.126;2023-12-22T14:02:00;2.05;;;1.38;;
80908;SDS011;70358;56.958;24.126;2023-12-22T14:07:09;2.70;;;1.08;;
80908;SDS011;70358;56.958;24.126;2023-12-22T14:09:44;2.08;;;1.05;;
80908;SDS011;70358;56.958;24.126;2023-12-22T14:15:09;2.53;;;1.20;;
80908;SDS011;70358;56.958;24.126;2023-12-22T14:17:45;2.17;;;0.90;;
80908;SDS011;70358;56.958;24.126;2023-12-22T14:20:17;2.70;;;1.20;;
80908;SDS011;70358;56.958;24.126;2023-12-22T14:22:50;2.75;;;1.13;;
80908;SDS011;70358;56.958;24.126;2023-12-22T14:25:15;3.00;;;1.20;;
80908;SDS011;70358;56.958;24.126;2023-12-22T14:27:47;1.75;;;1.13;;
80908;SDS011;70358;56.958;24.126;2023-12-22T14:30:12;1.70;;;1.08;;
80908;SDS011;70358;56.958;24.126;2023-12-22T14:32:38;1.98;;;1.02;;
80908;SDS011;70358;56.958;24.126;2023-12-22T14:35:04;2.05;;;1.17;;
80908;SDS011;70358;56.958;24.126;2023-12-22T14:37:30;5.57;;;1.27;;
80908;SDS011;70358;56.958;24.126;2023-12-22T14:39:55;2.22;;;1.00;;
80908;SDS011;70358;56.958;24.126;2023-12-22T14:42:24;1.23;;;0.82;;
80908;SDS011;70358;56.958;24.126;2023-12-22T14:44:49;2.38;;;1.17;;
80908;SDS011;70358;56.958;24.126;2023-12-22T14:48:00;2.35;;;1.30;;
80908;SDS011;70358;56.958;24.126;2023-12-22T14:50:11;2.47;;;1.40;;
80908;SDS011;70358;56.958;24.126;2023-12-22T14:55:35;1.45;;;1.08;;
80908;SDS011;70358;56.958;24.126;2023-12-22T14:58:07;1.65;;;0.98;;
80908;SDS011;70358;56.958;24.126;2023-12-22T15:00:34;1.80;;;0.88;;
80908;SDS011;70358;56.958;24.126;2023-12-22T15:03:00;1.92;;;1.30;;
80908;SDS011;70358;56.958;24.126;2023-12-22T15:05:31;1.70;;;1.15;;